createdAt,value
2023-04-02T00:01:26.816Z,101095.94
2023-04-02T00:04:22.153Z,101097.16
2023-04-02T00:06:57.051Z,101093.94
2023-04-02T00:09:32.115Z,101106.75
2023-04-02T00:12:15.461Z,101107.09
2023-04-02T00:14:48.585Z,101102.56
2023-04-02T00:17:17.138Z,101114.06
2023-04-02T00:19:51.715Z,101111.31
2023-04-02T00:22:25.984Z,101111.78
2023-04-02T00:24:57.025Z,101118.94
2023-04-02T00:27:25.688Z,101124.59
2023-04-02T00:29:55.792Z,101126.28
2023-04-02T00:32:27.121Z,101129.91
2023-04-02T00:34:56.768Z,101127.06
2023-04-02T00:37:29.045Z,101118.06
2023-04-02T00:40:06.391Z,101135.56
2023-04-02T00:42:37.715Z,101142.09
2023-04-02T00:45:09.581Z,101138.25
2023-04-02T00:47:40.706Z,101137.03
2023-04-02T00:50:23.400Z,101147.38
2023-04-02T00:52:55.751Z,101159.38
2023-04-02T00:55:28.319Z,101151.34
2023-04-02T00:57:59.094Z,101155.59
2023-04-02T01:00:30.892Z,101163.06
2023-04-02T01:03:30.017Z,101172.97
2023-04-02T01:06:02.746Z,101183.88
2023-04-02T01:08:45.185Z,101175.22
2023-04-02T01:11:36.834Z,101178.69
2023-04-02T01:14:15.831Z,101175.72
2023-04-02T01:16:54.128Z,101182.84
2023-04-02T01:19:36.182Z,101182.63
2023-04-02T01:22:09.380Z,101187.06
2023-04-02T01:24:39.189Z,101188.31
2023-04-02T01:27:13.799Z,101189.31
2023-04-02T01:29:48.617Z,101181.63
2023-04-02T01:32:21.743Z,101192.63
2023-04-02T01:34:51.773Z,101194.13
2023-04-02T01:37:34.489Z,101196.63
2023-04-02T01:40:17.279Z,101196.63
2023-04-02T01:42:55.052Z,101205.88
2023-04-02T01:45:25.236Z,101202.94
2023-04-02T01:47:53.824Z,101209.13
2023-04-02T01:50:27.207Z,101210.03
2023-04-02T01:52:58.235Z,101213.75
2023-04-02T01:55:33.530Z,101201.81
2023-04-02T01:58:04.000Z,101219.78
2023-04-02T02:00:37.572Z,101211.03
2023-04-02T02:03:08.695Z,101232.28
2023-04-02T02:05:38.288Z,101220.44
2023-04-02T02:08:10.272Z,101229.91
2023-04-02T02:10:41.024Z,101224.41
2023-04-02T02:13:16.002Z,101246.13
2023-04-02T02:15:46.677Z,101243.09
2023-04-02T02:18:18.155Z,101246.06
2023-04-02T02:20:47.350Z,101245.78
2023-04-02T02:23:16.442Z,101253.75
2023-04-02T02:25:47.632Z,101258.09
2023-04-02T02:28:19.165Z,101253.94
2023-04-02T02:30:52.734Z,101263.22
2023-04-02T02:33:26.061Z,101262.41
2023-04-02T02:36:03.205Z,101274.53
2023-04-02T02:38:57.482Z,101276.59
2023-04-02T02:41:46.345Z,101277.94
2023-04-02T02:44:18.747Z,101278.31
2023-04-02T02:46:53.666Z,101281.34
2023-04-02T02:49:27.216Z,101280.81
2023-04-02T02:52:01.291Z,101282.97
2023-04-02T02:54:41.621Z,101279.53
2023-04-02T02:57:15.060Z,101278.19
2023-04-02T02:59:44.727Z,101290.75
2023-04-02T03:02:16.783Z,101295.31
2023-04-02T03:04:48.973Z,101290.34
2023-04-02T03:07:19.382Z,101280.72
2023-04-02T03:09:55.068Z,101289.56
2023-04-02T03:12:37.749Z,101303.38
2023-04-02T03:15:17.581Z,101306.69
2023-04-02T03:17:55.474Z,101312.25
2023-04-02T03:20:33.766Z,101314.31
2023-04-02T03:23:04.837Z,101306.81
2023-04-02T03:25:39.871Z,101312.91
2023-04-02T03:28:15.734Z,101312.28
2023-04-02T03:30:48.753Z,101318.38
2023-04-02T03:33:24.410Z,101319.47
2023-04-02T03:35:59.208Z,101317.78
2023-04-02T03:38:31.463Z,101320.06
2023-04-02T03:41:05.529Z,101322.13
2023-04-02T03:43:41.978Z,101327.56
2023-04-02T03:46:23.675Z,101326.16
2023-04-02T03:48:58.912Z,101334.47
2023-04-02T03:51:31.924Z,101347.94
2023-04-02T03:54:03.011Z,101338.28
2023-04-02T03:56:39.666Z,101341.63
2023-04-02T03:59:18.008Z,101354.81
2023-04-02T04:01:54.822Z,101351.47
2023-04-02T04:04:28.665Z,101351.63
2023-04-02T04:06:58.487Z,101357.31
2023-04-02T04:09:31.045Z,101357.06
2023-04-02T04:12:10.825Z,101370.59
2023-04-02T04:14:45.307Z,101363.91
2023-04-02T04:17:24.741Z,101369.38
2023-04-02T04:20:01.905Z,101367.00
2023-04-02T04:22:31.854Z,101369.56
2023-04-02T04:25:23.627Z,101375.38
2023-04-02T04:28:07.848Z,101375.19
2023-04-02T04:30:51.110Z,101373.22
2023-04-02T04:33:25.436Z,101370.00
2023-04-02T04:36:01.231Z,101382.97
2023-04-02T04:38:39.186Z,101380.75
2023-04-02T04:41:15.610Z,101381.94
2023-04-02T04:43:51.870Z,101372.63
2023-04-02T04:46:27.277Z,101379.88
2023-04-02T04:49:01.763Z,101387.22
2023-04-02T04:51:39.154Z,101391.81
2023-04-02T04:54:13.937Z,101390.19
2023-04-02T04:56:48.729Z,101388.91
2023-04-02T04:59:23.115Z,101394.22
2023-04-02T05:01:59.375Z,101397.09
2023-04-02T05:04:34.695Z,101408.53
2023-04-02T05:07:09.332Z,101401.91
2023-04-02T05:09:41.433Z,101402.97
2023-04-02T05:12:22.824Z,101407.38
2023-04-02T05:14:56.064Z,101413.66
2023-04-02T05:17:30.788Z,101414.78
2023-04-02T05:20:08.136Z,101417.69
2023-04-02T05:22:47.348Z,101414.44
2023-04-02T05:25:23.551Z,101426.66
2023-04-02T05:27:58.863Z,101427.06
2023-04-02T05:30:46.893Z,101425.59
2023-04-02T05:33:23.552Z,101435.22
2023-04-02T05:35:59.405Z,101442.59
2023-04-02T05:38:33.318Z,101435.81
2023-04-02T05:41:05.019Z,101443.75
2023-04-02T05:43:35.544Z,101446.59
2023-04-02T05:46:15.141Z,101445.13
2023-04-02T05:48:45.553Z,101447.34
2023-04-02T05:51:20.952Z,101448.59
2023-04-02T05:53:54.972Z,101454.88
2023-04-02T05:56:27.296Z,101457.09
2023-04-02T05:58:59.419Z,101458.28
2023-04-02T06:01:39.304Z,101448.84
2023-04-02T06:04:22.305Z,101452.66
2023-04-02T06:06:53.456Z,101463.31
2023-04-02T06:09:34.904Z,101472.13
2023-04-02T06:12:14.921Z,101468.00
2023-04-02T06:14:43.445Z,101474.28
2023-04-02T06:17:15.828Z,101470.22
2023-04-02T06:19:44.639Z,101476.53
2023-04-02T06:22:21.669Z,101468.28
2023-04-02T06:24:59.995Z,101474.75
2023-04-02T06:27:29.554Z,101472.38
2023-04-02T06:30:03.785Z,101475.97
2023-04-02T06:32:33.756Z,101476.50
2023-04-02T06:35:02.133Z,101480.28
2023-04-02T06:37:34.482Z,101489.94
2023-04-02T06:40:41.334Z,101492.16
2023-04-02T06:43:36.497Z,101489.84
2023-04-02T06:46:30.397Z,101495.16
2023-04-02T06:49:22.373Z,101497.06
2023-04-02T06:51:56.137Z,101501.34
2023-04-02T06:54:24.466Z,101501.47
2023-04-02T06:56:58.992Z,101497.31
2023-04-02T06:59:37.192Z,101507.81
2023-04-02T07:02:23.917Z,101496.69
2023-04-02T07:04:52.575Z,101505.22
2023-04-02T07:07:21.893Z,101500.47
2023-04-02T07:09:51.782Z,101508.31
2023-04-02T07:12:24.812Z,101512.69
2023-04-02T07:14:53.675Z,101508.72
2023-04-02T07:17:22.866Z,101511.50
2023-04-02T07:19:51.231Z,101514.16
2023-04-02T07:22:22.815Z,101516.22
2023-04-02T07:24:55.561Z,101515.44
2023-04-02T07:27:25.164Z,101524.38
2023-04-02T07:29:54.632Z,101526.81
2023-04-02T07:32:23.003Z,101528.59
2023-04-02T07:34:51.175Z,101535.66
2023-04-02T07:37:19.450Z,101539.19
2023-04-02T07:39:47.732Z,101528.09
2023-04-02T07:42:15.938Z,101537.00
2023-04-02T07:44:45.456Z,101544.25
2023-04-02T07:47:13.716Z,101551.34
2023-04-02T07:49:41.997Z,101555.75
2023-04-02T07:52:10.337Z,101560.94
2023-04-02T07:54:39.927Z,101550.44
2023-04-02T07:57:08.314Z,101554.75
2023-04-02T07:59:36.588Z,101545.34
2023-04-02T08:02:06.599Z,101564.59
2023-04-02T08:04:35.004Z,101564.16
2023-04-02T08:07:03.510Z,101562.75
2023-04-02T08:09:31.921Z,101567.84
2023-04-02T08:12:00.099Z,101559.06
2023-04-02T08:14:28.368Z,101568.63
2023-04-02T08:16:57.175Z,101570.53
2023-04-02T08:19:27.013Z,101581.28
2023-04-02T08:21:55.322Z,101579.63
2023-04-02T08:24:24.208Z,101568.72
2023-04-02T08:26:53.912Z,101581.41
2023-04-02T08:29:22.531Z,101566.63
2023-04-02T08:31:51.185Z,101590.75
2023-04-02T08:34:19.347Z,101583.84
2023-04-02T08:36:49.145Z,101585.09
2023-04-02T08:39:18.393Z,101585.19
2023-04-02T08:41:50.636Z,101577.41
2023-04-02T08:44:40.892Z,101588.63
2023-04-02T08:47:10.897Z,101593.78
2023-04-02T08:49:43.420Z,101595.78
2023-04-02T08:52:26.512Z,101593.34
2023-04-02T08:54:56.400Z,101595.28
2023-04-02T08:57:36.319Z,101598.06
2023-04-02T09:00:11.013Z,101600.00
2023-04-02T09:02:41.894Z,101589.72
2023-04-02T09:05:18.687Z,101600.44
2023-04-02T09:07:50.360Z,101604.63
2023-04-02T09:10:20.179Z,101594.50
2023-04-02T09:12:53.650Z,101593.75
2023-04-02T09:15:29.525Z,101603.22
2023-04-02T09:18:01.471Z,101611.03
2023-04-02T09:20:29.741Z,101617.38
2023-04-02T09:22:59.323Z,101615.66
2023-04-02T09:25:29.862Z,101618.25
2023-04-02T09:28:01.793Z,101621.13
2023-04-02T09:30:42.149Z,101619.91
2023-04-02T09:33:10.969Z,101622.91
2023-04-02T09:35:56.386Z,101620.44
2023-04-02T09:38:30.753Z,101624.84
2023-04-02T09:41:01.609Z,101622.63
2023-04-02T09:43:31.285Z,101632.28
2023-04-02T09:46:02.211Z,101628.22
2023-04-02T09:48:33.660Z,101612.97
2023-04-02T09:51:08.176Z,101629.59
2023-04-02T09:53:41.868Z,101642.84
2023-04-02T09:56:16.335Z,101639.94
2023-04-02T09:58:46.838Z,101639.25
2023-04-02T10:01:30.243Z,101640.25
2023-04-02T10:04:00.097Z,101637.09
2023-04-02T10:06:30.533Z,101640.69
2023-04-02T10:09:19.658Z,101650.84
2023-04-02T10:11:48.089Z,101647.97
2023-04-02T10:14:22.808Z,101660.50
2023-04-02T10:16:53.473Z,101662.06
2023-04-02T10:19:30.347Z,101684.06
2023-04-02T10:22:00.856Z,101670.69
2023-04-02T10:24:30.656Z,101674.34
2023-04-02T10:27:06.844Z,101672.91
2023-04-02T10:29:50.664Z,101681.69
2023-04-02T10:32:22.877Z,101687.25
2023-04-02T10:34:59.811Z,101690.53
2023-04-02T10:37:55.945Z,101705.31
2023-04-02T10:40:30.474Z,101709.88
2023-04-02T10:43:36.990Z,101702.22
2023-04-02T10:46:11.002Z,101712.38
2023-04-02T10:48:48.834Z,101714.41
2023-04-02T10:51:37.018Z,101728.94
2023-04-02T10:54:19.529Z,101707.72
2023-04-02T10:56:53.148Z,101718.47
2023-04-02T10:59:26.203Z,101729.97
2023-04-02T11:01:58.302Z,101732.00
2023-04-02T11:04:32.250Z,101732.25
2023-04-02T11:07:13.950Z,101729.97
2023-04-02T11:09:46.250Z,101733.00
2023-04-02T11:12:23.200Z,101742.03
2023-04-02T11:14:53.433Z,101741.56
2023-04-02T11:17:22.457Z,101740.03
2023-04-02T11:19:50.800Z,101753.69
2023-04-02T11:22:22.791Z,101749.22
2023-04-02T11:24:52.823Z,101755.28
2023-04-02T11:27:27.545Z,101752.91
2023-04-02T11:30:04.091Z,101744.28
2023-04-02T11:32:36.804Z,101750.41
2023-04-02T11:35:38.111Z,101753.81
2023-04-02T11:38:48.061Z,101756.31
2023-04-02T11:41:54.971Z,101763.47
2023-04-02T11:44:26.277Z,101764.03
2023-04-02T11:47:14.602Z,101760.91
2023-04-02T11:50:04.301Z,101763.69
2023-04-02T11:52:54.009Z,101776.28
2023-04-02T11:55:31.158Z,101772.03
2023-04-02T11:58:11.017Z,101773.44
2023-04-02T12:01:31.992Z,101777.16
2023-04-02T12:04:08.682Z,101794.28
2023-04-02T12:06:54.971Z,101790.69
2023-04-02T12:09:25.190Z,101791.06
2023-04-02T12:11:56.915Z,101800.84
2023-04-02T12:14:42.964Z,101788.34
2023-04-02T12:17:22.687Z,101799.75
2023-04-02T12:19:53.303Z,101807.84
2023-04-02T12:22:24.568Z,101787.44
2023-04-02T12:24:55.812Z,101816.00
2023-04-02T12:27:27.980Z,101796.19
2023-04-02T12:29:57.231Z,101798.56
2023-04-02T12:32:30.141Z,101805.56
2023-04-02T12:35:01.594Z,101806.19
2023-04-02T12:37:31.601Z,101807.56
2023-04-02T12:40:02.374Z,101813.25
2023-04-02T12:42:34.192Z,101810.69
2023-04-02T12:45:04.189Z,101796.50
2023-04-02T12:47:34.874Z,101813.03
2023-04-02T12:50:03.729Z,101827.28
2023-04-02T12:52:32.764Z,101817.38
2023-04-02T12:55:03.667Z,101824.56
2023-04-02T12:57:39.791Z,101822.56
2023-04-02T13:00:31.280Z,101826.44
2023-04-02T13:03:22.141Z,101826.81
2023-04-02T13:05:55.182Z,101826.38
2023-04-02T13:08:27.281Z,101823.28
2023-04-02T13:10:58.724Z,101823.34
2023-04-02T13:13:31.166Z,101820.22
2023-04-02T13:16:06.898Z,101819.63
2023-04-02T13:18:40.245Z,101835.41
2023-04-02T13:21:24.687Z,101833.53
2023-04-02T13:23:54.051Z,101830.22
2023-04-02T13:26:25.091Z,101819.72
2023-04-02T13:29:01.787Z,101840.16
2023-04-02T13:31:31.044Z,101828.09
2023-04-02T13:34:00.765Z,101855.00
2023-04-02T13:36:29.709Z,101849.22
2023-04-02T13:38:58.267Z,101850.75
2023-04-02T13:41:28.544Z,101849.09
2023-04-02T13:44:00.113Z,101851.94
2023-04-02T13:46:31.121Z,101869.25
2023-04-02T13:49:01.567Z,101857.34
2023-04-02T13:51:37.271Z,101869.78
2023-04-02T13:54:13.448Z,101865.34
2023-04-02T13:56:41.835Z,101876.09
2023-04-02T13:59:11.722Z,101864.84
2023-04-02T14:01:41.167Z,101874.63
2023-04-02T14:04:16.378Z,101882.66
2023-04-02T14:07:25.950Z,101873.13
2023-04-02T14:10:24.741Z,101880.56
2023-04-02T14:13:18.519Z,101888.66
2023-04-02T14:16:07.353Z,101884.13
2023-04-02T14:18:57.101Z,101891.94
2023-04-02T14:21:36.239Z,101890.66
2023-04-02T14:24:17.755Z,101876.03
2023-04-02T14:27:00.635Z,101906.00
2023-04-02T14:29:34.946Z,101889.94
2023-04-02T14:32:07.669Z,101907.53
2023-04-02T14:34:44.215Z,101920.69
2023-04-02T14:37:22.016Z,101916.25
2023-04-02T14:40:02.528Z,101917.00
2023-04-02T14:42:37.117Z,101922.13
2023-04-02T14:45:10.972Z,101922.81
2023-04-02T14:47:44.357Z,101920.94
2023-04-02T14:50:16.662Z,101935.78
2023-04-02T14:52:51.619Z,101914.88
2023-04-02T14:55:28.101Z,101933.97
2023-04-02T14:58:00.044Z,101932.94
2023-04-02T15:00:36.969Z,101932.94
2023-04-02T15:03:13.689Z,101939.88
2023-04-02T15:05:46.629Z,101944.94
2023-04-02T15:08:21.997Z,101951.78
2023-04-02T15:11:03.516Z,101931.03
2023-04-02T15:13:38.993Z,101956.34
2023-04-02T15:16:12.545Z,101944.94
2023-04-02T15:18:40.812Z,101968.16
2023-04-02T15:21:46.446Z,101968.94
2023-04-02T15:24:39.547Z,101960.66
2023-04-02T15:27:25.558Z,101974.75
2023-04-02T15:30:03.515Z,101985.88
2023-04-02T15:32:39.149Z,101967.47
2023-04-02T15:35:24.125Z,101970.00
2023-04-02T15:38:01.252Z,101989.00
2023-04-02T15:40:52.883Z,101991.47
2023-04-02T15:43:27.796Z,101985.28
2023-04-02T15:46:07.388Z,101975.84
2023-04-02T15:49:01.378Z,101994.69
2023-04-02T15:51:56.762Z,101996.09
2023-04-02T15:54:38.699Z,102006.69
2023-04-02T15:57:22.434Z,102001.16
2023-04-02T16:00:12.758Z,102023.78
2023-04-02T16:02:55.000Z,101996.09
2023-04-02T16:05:34.313Z,101999.81
2023-04-02T16:08:25.150Z,102023.19
2023-04-02T16:10:53.732Z,102015.34
2023-04-02T16:13:30.669Z,102004.22
2023-04-02T16:16:05.497Z,102021.13
2023-04-02T16:18:50.660Z,102030.53
2023-04-02T16:21:23.131Z,102033.69
2023-04-02T16:23:51.880Z,102030.63
2023-04-02T16:26:44.976Z,102034.28
2023-04-02T16:29:40.772Z,102044.44
2023-04-02T16:32:26.571Z,102040.81
2023-04-02T16:35:24.868Z,102052.97
2023-04-02T16:37:56.935Z,102051.03
2023-04-02T16:40:34.981Z,102059.44
2023-04-02T16:43:16.656Z,102065.53
2023-04-02T16:45:54.578Z,102065.44
2023-04-02T16:48:36.389Z,102066.16
2023-04-02T16:51:15.753Z,102059.16
2023-04-02T16:54:01.437Z,102067.88
2023-04-02T16:56:47.205Z,102068.75
2023-04-02T16:59:23.926Z,102065.00
2023-04-02T17:01:58.473Z,102072.69
2023-04-02T17:04:54.399Z,102061.94
2023-04-02T17:07:36.390Z,102074.38
2023-04-02T17:10:20.593Z,102074.38
2023-04-02T17:12:56.015Z,102067.78
2023-04-02T17:15:28.717Z,102061.28
2023-04-02T17:18:01.564Z,102089.84
2023-04-02T17:20:30.609Z,102081.91
2023-04-02T17:22:59.482Z,102079.94
2023-04-02T17:25:31.785Z,102094.63
2023-04-02T17:28:00.347Z,102083.97
2023-04-02T17:31:23.133Z,102092.88
2023-04-02T17:33:53.087Z,102089.66
2023-04-02T17:36:49.328Z,102088.88
2023-04-02T17:39:23.315Z,102092.25
2023-04-02T17:41:58.114Z,102076.72
2023-04-02T17:44:48.764Z,102090.72
2023-04-02T17:47:22.086Z,102103.66
2023-04-02T17:50:08.545Z,102079.72
2023-04-02T17:52:41.513Z,102091.66
2023-04-02T17:55:20.901Z,102104.31
2023-04-02T17:58:01.532Z,102109.50
2023-04-02T18:00:58.655Z,102110.31
2023-04-02T18:03:51.851Z,102098.03
2023-04-02T18:06:24.076Z,102095.63
2023-04-02T18:09:05.461Z,102112.03
2023-04-02T18:11:43.914Z,102115.34
2023-04-02T18:14:28.389Z,102118.66
2023-04-02T18:17:05.583Z,102121.03
2023-04-02T18:19:40.747Z,102122.31
2023-04-02T18:22:19.716Z,102127.47
2023-04-02T18:25:19.510Z,102126.38
2023-04-02T18:28:06.665Z,102127.91
2023-04-02T18:30:40.188Z,102139.50
2023-04-02T18:33:35.065Z,102137.44
2023-04-02T18:36:12.258Z,102146.41
2023-04-02T18:38:48.480Z,102142.56
2023-04-02T18:41:30.246Z,102143.78
2023-04-02T18:44:12.959Z,102147.66
2023-04-02T18:46:47.702Z,102143.09
2023-04-02T18:49:27.820Z,102150.78
2023-04-02T18:51:59.636Z,102135.09
2023-04-02T18:54:33.660Z,102141.88
2023-04-02T18:57:04.258Z,102142.75
2023-04-02T18:59:39.988Z,102137.44
2023-04-02T19:02:32.132Z,102129.69
2023-04-02T19:05:04.668Z,102125.22
2023-04-02T19:07:37.211Z,102140.03
2023-04-02T19:10:19.153Z,102117.03
2023-04-02T19:12:47.804Z,102132.09
2023-04-02T19:15:17.544Z,102139.94
2023-04-02T19:17:49.574Z,102144.22
2023-04-02T19:20:30.786Z,102120.44
2023-04-02T19:23:12.234Z,102135.56
2023-04-02T19:25:55.665Z,102136.91
2023-04-02T19:28:31.143Z,102130.16
2023-04-02T19:31:20.309Z,102144.38
2023-04-02T19:33:53.660Z,102143.47
2023-04-02T19:36:41.755Z,102151.31
2023-04-02T19:39:46.951Z,102147.91
2023-04-02T19:42:28.244Z,102139.28
2023-04-02T19:44:57.244Z,102145.34
2023-04-02T19:47:26.597Z,102144.56
2023-04-02T19:49:56.012Z,102148.91
2023-04-02T19:52:24.230Z,102119.97
2023-04-02T19:54:52.511Z,102141.06
2023-04-02T19:57:22.263Z,102147.91
2023-04-02T19:59:50.622Z,102143.47
2023-04-02T20:02:19.013Z,102152.94
2023-04-02T20:04:47.361Z,102139.19
2023-04-02T20:07:16.468Z,102144.22
2023-04-02T20:09:45.115Z,102155.53
2023-04-02T20:12:13.321Z,102154.59
2023-04-02T20:14:43.098Z,102149.44
2023-04-02T20:17:11.379Z,102156.50
2023-04-02T20:19:39.599Z,102156.50
2023-04-02T20:22:07.938Z,102154.69
2023-04-02T20:24:36.505Z,102157.28
2023-04-02T20:27:04.906Z,102150.25
2023-04-02T20:29:33.287Z,102144.66
2023-04-02T20:32:03.363Z,102164.88
2023-04-02T20:34:33.445Z,102157.91
2023-04-02T20:37:01.844Z,102161.47
2023-04-02T20:39:30.040Z,102164.16
2023-04-02T20:42:01.256Z,102161.66
2023-04-02T20:44:29.716Z,102154.88
2023-04-02T20:46:57.974Z,102167.16
2023-04-02T20:49:27.754Z,102165.72
2023-04-02T20:51:56.158Z,102152.16
2023-04-02T20:54:24.659Z,102162.19
2023-04-02T20:56:53.062Z,102138.47
2023-04-02T20:59:21.367Z,102156.66
2023-04-02T21:01:49.971Z,102142.06
2023-04-02T21:04:18.799Z,102168.78
2023-04-02T21:06:56.833Z,102152.38
2023-04-02T21:09:25.535Z,102157.38
2023-04-02T21:11:53.896Z,102162.53
2023-04-02T21:14:22.206Z,102160.06
2023-04-02T21:16:50.448Z,102160.06
2023-04-02T21:19:18.793Z,102159.13
2023-04-02T21:21:48.737Z,102175.66
2023-04-02T21:24:17.164Z,102166.97
2023-04-02T21:26:46.725Z,102172.16
2023-04-02T21:29:15.128Z,102167.72
2023-04-02T21:31:43.927Z,102182.16
2023-04-02T21:34:15.800Z,102170.66
2023-04-02T21:36:46.129Z,102174.69
2023-04-02T21:39:19.081Z,102183.78
2023-04-02T21:41:50.096Z,102174.97
2023-04-02T21:44:19.800Z,102202.84
2023-04-02T21:46:48.933Z,102191.47
2023-04-02T21:49:22.087Z,102188.59
2023-04-02T21:51:51.790Z,102189.84
2023-04-02T21:54:21.580Z,102200.28
2023-04-02T21:56:50.583Z,102180.31
2023-04-02T21:59:19.427Z,102199.91
2023-04-02T22:01:49.931Z,102195.56
2023-04-02T22:04:20.759Z,102206.41
2023-04-02T22:06:49.479Z,102201.97
2023-04-02T22:09:21.231Z,102197.41
2023-04-02T22:11:54.089Z,102200.91
2023-04-02T22:14:23.402Z,102207.66
2023-04-02T22:16:52.460Z,102211.03
2023-04-02T22:19:20.898Z,102196.25
2023-04-02T22:21:49.272Z,102199.81
2023-04-02T22:24:22.032Z,102198.84
2023-04-02T22:26:52.003Z,102199.53
2023-04-02T22:29:20.506Z,102206.38
2023-04-02T22:31:48.963Z,102198.44
2023-04-02T22:34:17.324Z,102205.31
2023-04-02T22:36:45.658Z,102201.75
2023-04-02T22:39:18.249Z,102196.41
2023-04-02T22:41:46.661Z,102213.56
2023-04-02T22:44:16.879Z,102212.59
2023-04-02T22:46:45.919Z,102222.81
2023-04-02T22:49:19.224Z,102219.25
2023-04-02T22:51:49.608Z,102216.50
2023-04-02T22:54:17.811Z,102218.91
2023-04-02T22:56:46.093Z,102217.72
2023-04-02T22:59:14.757Z,102221.91
2023-04-02T23:01:44.599Z,102213.00
2023-04-02T23:04:12.885Z,102213.59
2023-04-02T23:06:41.216Z,102214.81
2023-04-02T23:09:09.496Z,102214.03
2023-04-02T23:11:38.023Z,102213.22
2023-04-02T23:14:06.516Z,102214.81
2023-04-02T23:16:35.238Z,102211.25
2023-04-02T23:19:05.431Z,102215.13
2023-04-02T23:21:34.217Z,102211.88
2023-04-02T23:24:02.625Z,102190.16
2023-04-02T23:26:31.837Z,102229.56
2023-04-02T23:29:00.885Z,102221.50
2023-04-02T23:31:29.489Z,102221.34
2023-04-02T23:33:57.883Z,102228.97
2023-04-02T23:36:29.562Z,102218.47
2023-04-02T23:39:01.262Z,102225.41
2023-04-02T23:41:31.379Z,102219.34
2023-04-02T23:44:00.453Z,102232.16
2023-04-02T23:46:29.448Z,102226.09
2023-04-02T23:48:58.415Z,102235.63
2023-04-02T23:51:29.623Z,102227.88
2023-04-02T23:53:58.246Z,102227.78
2023-04-02T23:56:27.207Z,102217.00
2023-04-02T23:58:55.566Z,102224.22
